Time;durP1;ratioP1;P1;durP2;ratioP2;P2;SDS_P1;SDS_P2;PMS_P1;PMS_P2;Temp;Humidity;BMP_temperature;BMP_pressure;BME280_temperature;BME280_humidity;BME280_pressure;Samples;Min_cycle;Max_cycle;Signal;HPM_P1;HPM_P2
2022/07/07 00:01:13;;;;;;;0.10;0.10;;;;;;;;;;5091461;28;20940;-91
2022/07/07 00:03:39;;;;;;;0.40;0.40;;;;;;;;;;5079685;28;20423;-92
2022/07/07 00:06:05;;;;;;;0.10;0.10;;;;;;;;;;5067031;28;20571;-91
2022/07/07 00:08:31;;;;;;;0.10;0.10;;;;;;;;;;5092088;28;20418;-91
2022/07/07 00:11:26;;;;;;;0.10;0.10;;;;;;;;;;5100933;28;20460;-91
2022/07/07 00:13:59;;;;;;;0.25;0.25;;;;;;;;;;5074561;28;20871;-92
2022/07/07 00:16:26;;;;;;;0.10;0.10;;;;;;;;;;5091509;28;20414;-89
2022/07/07 00:18:54;;;;;;;0.00;0.00;;;;;;;;;;5091921;28;20421;-91
2022/07/07 00:21:21;;;;;;;0.60;0.30;;;;;;;;;;5091099;28;20454;-91
2022/07/07 00:23:47;;;;;;;0.10;0.10;;;;;;;;;;5090805;28;20440;-91
2022/07/07 00:26:21;;;;;;;0.10;0.10;;;;;;;;;;5099610;28;20426;-91
2022/07/07 00:28:56;;;;;;;0.20;0.20;;;;;;;;;;5041969;28;20509;-91
2022/07/07 00:31:35;;;;;;;0.10;0.10;;;;;;;;;;5088424;28;20417;-91
2022/07/07 00:37:00;;;;;;;0.10;0.10;;;;;;;;;;5085576;28;20416;-92
2022/07/07 00:39:26;;;;;;;0.10;0.10;;;;;;;;;;5076874;28;20420;-91
2022/07/07 00:41:52;;;;;;;0.10;0.10;;;;;;;;;;5073829;28;20458;-92
2022/07/07 00:44:22;;;;;;;0.00;0.00;;;;;;;;;;5073261;28;20429;-92
2022/07/07 00:46:50;;;;;;;0.10;0.10;;;;;;;;;;5068527;28;20552;-92
2022/07/07 00:49:17;;;;;;;0.10;0.10;;;;;;;;;;5090381;28;21012;-91
2022/07/07 00:51:44;;;;;;;0.10;0.10;;;;;;;;;;5091609;28;20422;-92
2022/07/07 00:54:12;;;;;;;0.10;0.10;;;;;;;;;;5066663;28;20433;-93
2022/07/07 00:56:39;;;;;;;0.10;0.10;;;;;;;;;;5052165;28;20776;-92
2022/07/07 00:59:08;;;;;;;0.10;0.10;;;;;;;;;;5090248;28;20916;-94
2022/07/07 01:01:41;;;;;;;0.10;0.10;;;;;;;;;;5091344;28;20742;-93
2022/07/07 01:04:17;;;;;;;0.00;0.00;;;;;;;;;;5090436;28;20425;-93
2022/07/07 01:06:45;;;;;;;0.10;0.10;;;;;;;;;;5092033;28;20460;-92
2022/07/07 01:09:22;;;;;;;;;;;;;;;;;;;;;
2022/07/07 01:11:59;;;;;;;0.10;0.10;;;;;;;;;;5092803;28;20409;-93
2022/07/07 01:14:25;;;;;;;0.10;0.10;;;;;;;;;;5056886;28;20501;-91
2022/07/07 01:16:52;;;;;;;0.00;0.00;;;;;;;;;;5081457;28;20425;-92
2022/07/07 01:19:19;;;;;;;0.10;0.10;;;;;;;;;;5073301;28;20430;-93
2022/07/07 01:21:53;;;;;;;0.10;0.10;;;;;;;;;;5078209;28;20431;-93
2022/07/07 01:24:19;;;;;;;0.10;0.10;;;;;;;;;;5061094;28;20433;-93
2022/07/07 01:26:45;;;;;;;0.00;0.00;;;;;;;;;;5074097;28;20475;-92
2022/07/07 01:29:11;;;;;;;0.10;0.10;;;;;;;;;;5058070;28;20545;-92
2022/07/07 01:31:37;;;;;;;0.10;0.10;;;;;;;;;;5099925;28;20470;-92
2022/07/07 01:34:03;;;;;;;0.10;0.10;;;;;;;;;;5074589;28;20908;-93
2022/07/07 01:36:29;;;;;;;0.10;0.10;;;;;;;;;;5073848;28;20457;-91
2022/07/07 01:38:55;;;;;;;0.05;0.05;;;;;;;;;;5088505;28;20983;-93
2022/07/07 01:41:21;;;;;;;0.00;0.00;;;;;;;;;;5076523;28;20561;-92
2022/07/07 01:43:47;;;;;;;0.10;0.10;;;;;;;;;;5064140;28;20784;-92
2022/07/07 01:46:13;;;;;;;0.00;0.00;;;;;;;;;;5056926;28;20421;-91
2022/07/07 01:48:40;;;;;;;0.00;0.00;;;;;;;;;;5095402;28;20420;-92
2022/07/07 01:51:06;;;;;;;0.00;0.00;;;;;;;;;;5056572;28;20433;-93
2022/07/07 01:53:32;;;;;;;0.27;0.27;;;;;;;;;;5096017;28;20895;-92
2022/07/07 01:56:05;;;;;;;0.00;0.00;;;;;;;;;;5079287;28;20832;-92
2022/07/07 01:58:32;;;;;;;0.00;0.00;;;;;;;;;;5077259;28;20459;-92
2022/07/07 02:00:58;;;;;;;0.00;0.00;;;;;;;;;;5111165;28;20424;-93
2022/07/07 02:03:25;;;;;;;0.00;0.00;;;;;;;;;;5072825;28;20434;-92
2022/07/07 02:05:52;;;;;;;0.00;0.00;;;;;;;;;;5071974;28;20428;-93
2022/07/07 02:08:18;;;;;;;0.00;0.00;;;;;;;;;;5088650;28;20472;-91
2022/07/07 02:13:28;;;;;;;0.10;0.10;;;;;;;;;;5073119;28;20705;-92
2022/07/07 02:15:54;;;;;;;0.10;0.10;;;;;;;;;;5080632;28;20426;-93
2022/07/07 02:18:20;;;;;;;0.20;0.20;;;;;;;;;;5090161;28;20420;-92
2022/07/07 02:20:46;;;;;;;0.20;0.20;;;;;;;;;;5073830;28;20426;-92
2022/07/07 02:23:12;;;;;;;0.00;0.00;;;;;;;;;;5056938;28;20443;-92
2022/07/07 02:25:38;;;;;;;0.10;0.10;;;;;;;;;;5090495;28;20467;-93
2022/07/07 02:28:05;;;;;;;0.20;0.20;;;;;;;;;;5078871;28;20416;-92
2022/07/07 02:30:31;;;;;;;0.10;0.10;;;;;;;;;;5070787;28;21036;-92
2022/07/07 02:32:57;;;;;;;0.00;0.00;;;;;;;;;;5087508;28;20425;-93
2022/07/07 02:35:23;;;;;;;0.10;0.10;;;;;;;;;;5043383;28;20429;-92
2022/07/07 02:37:49;;;;;;;0.10;0.10;;;;;;;;;;5043975;28;20464;-92
2022/07/07 02:40:15;;;;;;;0.00;0.00;;;;;;;;;;5110975;28;20414;-92
2022/07/07 02:42:41;;;;;;;0.50;0.50;;;;;;;;;;5094065;28;20436;-92
2022/07/07 02:45:08;;;;;;;0.03;0.03;;;;;;;;;;5094093;28;20489;-93
2022/07/07 02:47:34;;;;;;;0.10;0.10;;;;;;;;;;5076772;28;20417;-91
2022/07/07 02:50:00;;;;;;;0.10;0.10;;;;;;;;;;5076536;28;20425;-92
2022/07/07 02:52:26;;;;;;;0.90;0.50;;;;;;;;;;5094154;28;20475;-92
2022/07/07 02:54:52;;;;;;;0.10;0.10;;;;;;;;;;5094970;28;20823;-93
2022/07/07 02:57:18;;;;;;;1.40;0.70;;;;;;;;;;5095304;28;20967;-92
2022/07/07 02:59:44;;;;;;;0.15;0.15;;;;;;;;;;5061801;28;20453;-92
2022/07/07 03:02:10;;;;;;;0.32;0.32;;;;;;;;;;5088721;28;20432;-93
2022/07/07 03:04:36;;;;;;;1.08;0.47;;;;;;;;;;5092956;28;20422;-93
2022/07/07 03:07:03;;;;;;;0.20;0.20;;;;;;;;;;5080753;28;20509;-93
2022/07/07 03:09:29;;;;;;;0.00;0.00;;;;;;;;;;5083837;28;20429;-92
2022/07/07 03:11:55;;;;;;;0.05;0.05;;;;;;;;;;5065098;28;20514;-93
2022/07/07 03:14:21;;;;;;;0.00;0.00;;;;;;;;;;5124344;28;20503;-91
2022/07/07 03:16:47;;;;;;;0.20;0.20;;;;;;;;;;5120441;28;20428;-90
2022/07/07 03:19:13;;;;;;;0.00;0.00;;;;;;;;;;5108758;28;20469;-91
2022/07/07 03:21:39;;;;;;;0.00;0.00;;;;;;;;;;5112374;28;20422;-92
2022/07/07 03:24:05;;;;;;;0.10;0.10;;;;;;;;;;5122579;28;20422;-92
2022/07/07 03:26:31;;;;;;;0.10;0.10;;;;;;;;;;5078020;28;20744;-90
2022/07/07 03:28:57;;;;;;;0.10;0.10;;;;;;;;;;5092342;28;20403;-90
2022/07/07 03:31:23;;;;;;;3.50;0.70;;;;;;;;;;5107740;28;20452;-90
2022/07/07 03:33:49;;;;;;;0.10;0.10;;;;;;;;;;5088516;28;20433;-88
2022/07/07 03:36:16;;;;;;;0.00;0.00;;;;;;;;;;5089467;28;20406;-92
2022/07/07 03:38:43;;;;;;;0.00;0.00;;;;;;;;;;5056794;28;20406;-88
2022/07/07 03:41:09;;;;;;;0.00;0.00;;;;;;;;;;5100812;28;20425;-91
2022/07/07 03:43:35;;;;;;;0.10;0.10;;;;;;;;;;5077181;28;20418;-89
2022/07/07 03:46:01;;;;;;;0.00;0.00;;;;;;;;;;5042772;28;20450;-91
2022/07/07 03:48:29;;;;;;;0.20;0.20;;;;;;;;;;5077626;28;20424;-89
2022/07/07 03:50:55;;;;;;;0.10;0.10;;;;;;;;;;5073945;28;20475;-90
2022/07/07 03:53:21;;;;;;;0.30;0.30;;;;;;;;;;5074498;28;20426;-90
2022/07/07 03:55:47;;;;;;;0.50;0.40;;;;;;;;;;5089229;28;20469;-90
2022/07/07 03:58:13;;;;;;;0.50;0.50;;;;;;;;;;5092548;28;20401;-92
2022/07/07 04:00:39;;;;;;;0.10;0.10;;;;;;;;;;5094139;28;20782;-90
2022/07/07 04:03:05;;;;;;;0.10;0.10;;;;;;;;;;5093289;28;20797;-91
2022/07/07 04:05:31;;;;;;;0.30;0.30;;;;;;;;;;5092607;28;20951;-91
2022/07/07 04:07:57;;;;;;;0.68;0.30;;;;;;;;;;5042492;28;20414;-91
2022/07/07 04:10:23;;;;;;;0.70;0.30;;;;;;;;;;5058535;28;20414;-90
2022/07/07 04:12:50;;;;;;;0.00;0.00;;;;;;;;;;5092314;28;20420;-89
2022/07/07 04:15:16;;;;;;;0.05;0.05;;;;;;;;;;5062248;28;20473;-89
2022/07/07 04:17:42;;;;;;;0.10;0.10;;;;;;;;;;5090543;28;20924;-89
2022/07/07 04:20:08;;;;;;;0.00;0.00;;;;;;;;;;5106725;27;20933;-90
2022/07/07 04:22:34;;;;;;;0.10;0.10;;;;;;;;;;5091698;28;20913;-90
2022/07/07 04:25:00;;;;;;;0.10;0.10;;;;;;;;;;5092397;28;20422;-91
2022/07/07 04:27:26;;;;;;;0.00;0.00;;;;;;;;;;5091239;28;20932;-90
2022/07/07 04:29:52;;;;;;;0.00;0.00;;;;;;;;;;5075025;28;20932;-90
2022/07/07 04:32:18;;;;;;;0.10;0.10;;;;;;;;;;5058581;28;20437;-89
2022/07/07 04:34:44;;;;;;;0.00;0.00;;;;;;;;;;5075017;28;20437;-88
2022/07/07 04:37:10;;;;;;;0.10;0.10;;;;;;;;;;5075167;28;20426;-90
2022/07/07 04:39:36;;;;;;;0.10;0.10;;;;;;;;;;5087845;28;20420;-90
2022/07/07 04:42:03;;;;;;;0.10;0.10;;;;;;;;;;5074370;28;20445;-90
2022/07/07 04:44:29;;;;;;;0.20;0.20;;;;;;;;;;5090700;28;20472;-89
2022/07/07 04:46:55;;;;;;;0.10;0.10;;;;;;;;;;5092898;28;20445;-90
2022/07/07 04:49:21;;;;;;;0.10;0.10;;;;;;;;;;5107629;28;20430;-91
2022/07/07 04:51:50;;;;;;;0.00;0.00;;;;;;;;;;5073345;28;20449;-89
2022/07/07 04:54:17;;;;;;;0.00;0.00;;;;;;;;;;5073633;28;20831;-89
2022/07/07 04:56:43;;;;;;;0.10;0.10;;;;;;;;;;5082449;28;20432;-91
2022/07/07 04:59:09;;;;;;;0.30;0.20;;;;;;;;;;5091235;28;20436;-91
2022/07/07 05:01:35;;;;;;;0.00;0.00;;;;;;;;;;5044485;28;20908;-90
2022/07/07 05:04:01;;;;;;;0.10;0.10;;;;;;;;;;5087052;28;20472;-91
2022/07/07 05:06:27;;;;;;;0.47;0.28;;;;;;;;;;5056961;28;20484;-91
2022/07/07 05:08:53;;;;;;;0.00;0.00;;;;;;;;;;5074060;28;20417;-90
2022/07/07 05:11:19;;;;;;;0.10;0.10;;;;;;;;;;5075285;28;20430;-90
2022/07/07 05:13:45;;;;;;;0.00;0.00;;;;;;;;;;5056964;28;20421;-89
2022/07/07 05:16:11;;;;;;;0.00;0.00;;;;;;;;;;5090779;28;20430;-90
2022/07/07 05:18:37;;;;;;;0.00;0.00;;;;;;;;;;5073940;28;20402;-90
2022/07/07 05:21:03;;;;;;;0.10;0.10;;;;;;;;;;5057536;28;20417;-89
2022/07/07 05:23:30;;;;;;;0.10;0.10;;;;;;;;;;5090047;28;20500;-90
2022/07/07 05:25:56;;;;;;;0.10;0.10;;;;;;;;;;5082228;28;20464;-90
2022/07/07 05:28:22;;;;;;;0.00;0.00;;;;;;;;;;5067269;28;20422;-89
2022/07/07 05:30:48;;;;;;;0.10;0.10;;;;;;;;;;5089987;28;20512;-88
2022/07/07 05:33:15;;;;;;;5.00;0.25;;;;;;;;;;5090689;28;20421;-89
2022/07/07 05:35:41;;;;;;;0.00;0.00;;;;;;;;;;5073633;28;20418;-89
2022/07/07 05:38:07;;;;;;;0.00;0.00;;;;;;;;;;5091179;28;20939;-90
2022/07/07 05:40:33;;;;;;;0.10;0.10;;;;;;;;;;5073801;28;20773;-91
2022/07/07 05:42:59;;;;;;;0.10;0.10;;;;;;;;;;5073687;28;20425;-90
2022/07/07 05:45:25;;;;;;;0.10;0.10;;;;;;;;;;5065115;28;20430;-89
2022/07/07 05:47:51;;;;;;;0.20;0.20;;;;;;;;;;5073868;28;20974;-89
2022/07/07 05:50:17;;;;;;;0.00;0.00;;;;;;;;;;5096389;28;20959;-88
2022/07/07 05:52:43;;;;;;;0.50;0.30;;;;;;;;;;5072043;28;20505;-91
2022/07/07 05:55:09;;;;;;;0.20;0.20;;;;;;;;;;5075542;28;20927;-90
2022/07/07 05:57:35;;;;;;;0.10;0.10;;;;;;;;;;5069669;28;20451;-90
2022/07/07 06:00:02;;;;;;;0.38;0.38;;;;;;;;;;5072447;28;20527;-91
2022/07/07 06:02:28;;;;;;;0.10;0.10;;;;;;;;;;5069230;28;20446;-90
2022/07/07 06:04:54;;;;;;;0.50;0.30;;;;;;;;;;5074506;28;20412;-91
2022/07/07 06:07:20;;;;;;;0.10;0.10;;;;;;;;;;5057606;28;20423;-90
2022/07/07 06:09:46;;;;;;;0.10;0.10;;;;;;;;;;5087543;28;20807;-89
2022/07/07 06:12:13;;;;;;;0.00;0.00;;;;;;;;;;5061693;28;20546;-90
2022/07/07 06:14:39;;;;;;;0.00;0.00;;;;;;;;;;5078267;28;20492;-90
2022/07/07 06:17:05;;;;;;;0.15;0.15;;;;;;;;;;5072470;28;20419;-90
2022/07/07 06:19:31;;;;;;;0.00;0.00;;;;;;;;;;5058384;28;20411;-90
2022/07/07 06:21:57;;;;;;;0.20;0.20;;;;;;;;;;5076618;28;20401;-91
2022/07/07 06:24:23;;;;;;;0.10;0.10;;;;;;;;;;5060217;28;20414;-90
2022/07/07 06:26:49;;;;;;;0.00;0.00;;;;;;;;;;5084156;28;21055;-89
2022/07/07 06:29:15;;;;;;;0.00;0.00;;;;;;;;;;5058392;28;20452;-89
2022/07/07 06:31:41;;;;;;;0.05;0.05;;;;;;;;;;5061814;28;20434;-89
2022/07/07 06:34:07;;;;;;;0.60;0.45;;;;;;;;;;5057117;28;20779;-89
2022/07/07 06:36:33;;;;;;;0.10;0.10;;;;;;;;;;5061146;28;20434;-89
2022/07/07 06:38:59;;;;;;;0.03;0.03;;;;;;;;;;5063847;28;20423;-90
2022/07/07 06:41:34;;;;;;;0.10;0.10;;;;;;;;;;5048779;28;20451;-90
2022/07/07 06:44:00;;;;;;;0.40;0.20;;;;;;;;;;5081753;28;20518;-90
2022/07/07 06:46:26;;;;;;;0.10;0.10;;;;;;;;;;5070088;28;20427;-89
2022/07/07 06:48:52;;;;;;;0.03;0.03;;;;;;;;;;5043933;28;20976;-89
2022/07/07 06:51:18;;;;;;;0.10;0.10;;;;;;;;;;5059480;28;20438;-89
2022/07/07 06:53:44;;;;;;;0.10;0.10;;;;;;;;;;5061018;28;20419;-89
2022/07/07 06:56:10;;;;;;;0.00;0.00;;;;;;;;;;5081768;28;20432;-90
2022/07/07 06:58:37;;;;;;;0.10;0.10;;;;;;;;;;5101334;28;20849;-90
2022/07/07 07:01:03;;;;;;;0.10;0.10;;;;;;;;;;5075884;28;20922;-91
2022/07/07 07:03:29;;;;;;;0.10;0.10;;;;;;;;;;5084715;28;20430;-90
2022/07/07 07:05:55;;;;;;;0.10;0.10;;;;;;;;;;5104158;28;20799;-91
2022/07/07 07:08:21;;;;;;;0.10;0.10;;;;;;;;;;5048251;28;20774;-89
2022/07/07 07:10:48;;;;;;;0.20;0.20;;;;;;;;;;5061112;28;20501;-89
2022/07/07 07:13:14;;;;;;;0.08;0.08;;;;;;;;;;5063947;28;20438;-89
2022/07/07 07:15:40;;;;;;;0.17;0.17;;;;;;;;;;5056632;28;20423;-89
2022/07/07 07:18:09;;;;;;;0.10;0.10;;;;;;;;;;5060622;28;20416;-89
2022/07/07 07:20:35;;;;;;;0.00;0.00;;;;;;;;;;5078198;28;20473;-90
2022/07/07 07:23:01;;;;;;;0.10;0.10;;;;;;;;;;5065518;28;20485;-89
2022/07/07 07:25:27;;;;;;;0.10;0.10;;;;;;;;;;5062594;28;20778;-89
2022/07/07 07:27:53;;;;;;;0.10;0.10;;;;;;;;;;5058269;28;20491;-89
2022/07/07 07:30:19;;;;;;;1.20;0.40;;;;;;;;;;5075115;28;20428;-89
2022/07/07 07:32:45;;;;;;;0.10;0.10;;;;;;;;;;5075124;28;20545;-88
2022/07/07 07:35:12;;;;;;;0.10;0.10;;;;;;;;;;5074621;28;20419;-88
2022/07/07 07:37:39;;;;;;;0.10;0.10;;;;;;;;;;5074633;28;20442;-89
2022/07/07 07:40:09;;;;;;;1.70;0.80;;;;;;;;;;5074165;28;20427;-90
2022/07/07 07:42:36;;;;;;;0.10;0.10;;;;;;;;;;5058927;28;20914;-89
2022/07/07 07:45:11;;;;;;;0.10;0.10;;;;;;;;;;5073161;28;20419;-89
2022/07/07 07:47:42;;;;;;;0.20;0.20;;;;;;;;;;5073721;28;20424;-89
2022/07/07 07:50:10;;;;;;;0.10;0.10;;;;;;;;;;5072291;28;20432;-89
2022/07/07 07:52:36;;;;;;;0.10;0.10;;;;;;;;;;5057595;28;20431;-90
2022/07/07 07:55:02;;;;;;;0.10;0.10;;;;;;;;;;5059704;28;20424;-90
2022/07/07 07:57:29;;;;;;;0.10;0.10;;;;;;;;;;5061541;28;20506;-90
2022/07/07 07:59:55;;;;;;;0.70;0.50;;;;;;;;;;5080196;28;20918;-90
2022/07/07 08:02:21;;;;;;;0.10;0.10;;;;;;;;;;5084598;28;20906;-90
2022/07/07 08:04:50;;;;;;;0.00;0.00;;;;;;;;;;5063803;28;20740;-90
2022/07/07 08:07:17;;;;;;;0.00;0.00;;;;;;;;;;5073928;28;20429;-90
2022/07/07 08:09:43;;;;;;;0.10;0.10;;;;;;;;;;5068781;28;20918;-89
2022/07/07 08:12:09;;;;;;;0.10;0.10;;;;;;;;;;5091642;28;20925;-89
2022/07/07 08:14:35;;;;;;;0.10;0.10;;;;;;;;;;5076482;28;20424;-90
2022/07/07 08:17:01;;;;;;;0.10;0.10;;;;;;;;;;5058260;28;20461;-92
2022/07/07 08:19:27;;;;;;;0.10;0.10;;;;;;;;;;5046923;28;20438;-90
2022/07/07 08:21:53;;;;;;;0.10;0.10;;;;;;;;;;5080315;28;20432;-91
2022/07/07 08:24:19;;;;;;;0.10;0.10;;;;;;;;;;5078466;28;20483;-90
2022/07/07 08:26:46;;;;;;;0.10;0.10;;;;;;;;;;5045184;28;20412;-90
2022/07/07 08:29:13;;;;;;;0.30;0.30;;;;;;;;;;5061916;28;20425;-90
2022/07/07 08:31:39;;;;;;;0.10;0.10;;;;;;;;;;5097417;28;20419;-90
2022/07/07 08:34:05;;;;;;;0.27;0.10;;;;;;;;;;5090048;28;20906;-90
2022/07/07 08:36:31;;;;;;;0.10;0.10;;;;;;;;;;5079665;28;20431;-90
2022/07/07 08:38:57;;;;;;;0.10;0.10;;;;;;;;;;5082051;28;20518;-90
2022/07/07 08:41:24;;;;;;;0.00;0.00;;;;;;;;;;5083570;28;20427;-90
2022/07/07 08:43:51;;;;;;;0.10;0.10;;;;;;;;;;5079912;28;20450;-89
2022/07/07 08:46:17;;;;;;;0.10;0.10;;;;;;;;;;5078526;28;20416;-90
2022/07/07 08:48:43;;;;;;;9.00;0.90;;;;;;;;;;5062256;28;20419;-90
2022/07/07 08:51:09;;;;;;;0.00;0.00;;;;;;;;;;5068478;28;20473;-91
2022/07/07 08:53:37;;;;;;;0.20;0.20;;;;;;;;;;5080224;28;20422;-90
2022/07/07 08:56:07;;;;;;;1.00;0.40;;;;;;;;;;5081488;28;20432;-91
2022/07/07 08:58:37;;;;;;;0.50;0.50;;;;;;;;;;5085233;28;20431;-90
2022/07/07 09:01:04;;;;;;;0.10;0.10;;;;;;;;;;5078658;28;20470;-91
2022/07/07 09:03:30;;;;;;;0.10;0.10;;;;;;;;;;5078819;28;20423;-90
2022/07/07 09:05:56;;;;;;;0.10;0.10;;;;;;;;;;5076770;28;20426;-90
2022/07/07 09:08:23;;;;;;;0.07;0.07;;;;;;;;;;5078350;28;20481;-89
2022/07/07 09:10:49;;;;;;;0.10;0.10;;;;;;;;;;5075953;28;20977;-89
2022/07/07 09:13:26;;;;;;;0.10;0.10;;;;;;;;;;5075408;28;20423;-89
2022/07/07 09:15:57;;;;;;;0.20;0.20;;;;;;;;;;5057627;28;20476;-90
2022/07/07 09:18:32;;;;;;;0.10;0.10;;;;;;;;;;5060484;28;20459;-91
2022/07/07 09:20:58;;;;;;;0.10;0.10;;;;;;;;;;5075995;28;20427;-90
2022/07/07 09:23:24;;;;;;;0.20;0.20;;;;;;;;;;5059307;28;20435;-90
2022/07/07 09:25:51;;;;;;;0.10;0.10;;;;;;;;;;5075905;28;20426;-89
2022/07/07 09:28:17;;;;;;;0.10;0.10;;;;;;;;;;5060254;28;20430;-89
2022/07/07 09:30:45;;;;;;;0.10;0.10;;;;;;;;;;5075712;28;20420;-89
2022/07/07 09:33:22;;;;;;;0.20;0.20;;;;;;;;;;5076600;28;20430;-91
2022/07/07 09:38:34;;;;;;;0.10;0.10;;;;;;;;;;5087241;28;20500;-90
2022/07/07 09:41:05;;;;;;;0.10;0.10;;;;;;;;;;5064848;28;20431;-91
2022/07/07 09:43:36;;;;;;;0.20;0.20;;;;;;;;;;5079678;28;20475;-89
2022/07/07 09:46:33;;;;;;;1.10;0.40;;;;;;;;;;5078766;28;20470;-90
2022/07/07 09:49:02;;;;;;;0.10;0.10;;;;;;;;;;5038776;28;20452;-91
2022/07/07 09:51:32;;;;;;;0.00;0.00;;;;;;;;;;5072858;28;20427;-91
2022/07/07 09:54:00;;;;;;;0.10;0.10;;;;;;;;;;5063886;28;20431;-91
2022/07/07 09:56:28;;;;;;;0.10;0.10;;;;;;;;;;5072356;28;20432;-91
2022/07/07 09:58:54;;;;;;;0.15;0.13;;;;;;;;;;5080344;28;20411;-91
2022/07/07 10:01:24;;;;;;;0.10;0.10;;;;;;;;;;5084012;28;20413;-91
2022/07/07 10:03:52;;;;;;;0.20;0.17;;;;;;;;;;5082745;28;20517;-91
2022/07/07 10:06:18;;;;;;;0.30;0.30;;;;;;;;;;5080443;28;20778;-91
2022/07/07 10:08:45;;;;;;;8.40;0.30;;;;;;;;;;5077692;28;20417;-90
2022/07/07 10:11:15;;;;;;;0.10;0.10;;;;;;;;;;5079963;28;20855;-90
2022/07/07 10:13:43;;;;;;;0.10;0.10;;;;;;;;;;5080089;28;20438;-90
2022/07/07 10:16:10;;;;;;;0.10;0.10;;;;;;;;;;5078700;28;20415;-90
2022/07/07 10:18:36;;;;;;;0.10;0.10;;;;;;;;;;5096905;28;20430;-91
2022/07/07 10:21:02;;;;;;;0.37;0.37;;;;;;;;;;5091391;28;20481;-90
2022/07/07 10:23:29;;;;;;;0.20;0.20;;;;;;;;;;5098973;28;20423;-89
2022/07/07 10:26:07;;;;;;;0.10;0.10;;;;;;;;;;5088481;28;20423;-91
2022/07/07 10:28:51;;;;;;;0.20;0.20;;;;;;;;;;5090883;28;20428;-90
2022/07/07 10:31:25;;;;;;;0.20;0.20;;;;;;;;;;5092067;28;20480;-91
2022/07/07 10:34:00;;;;;;;0.10;0.10;;;;;;;;;;5090819;28;20423;-90
2022/07/07 10:36:26;;;;;;;0.10;0.10;;;;;;;;;;5089241;28;20513;-89
2022/07/07 10:38:56;;;;;;;2.10;0.70;;;;;;;;;;5074508;28;20914;-89
2022/07/07 10:41:24;;;;;;;0.10;0.10;;;;;;;;;;5101907;28;20452;-90
2022/07/07 10:43:58;;;;;;;0.03;0.03;;;;;;;;;;5067039;28;20756;-90
2022/07/07 10:46:24;;;;;;;0.10;0.10;;;;;;;;;;5076830;28;20430;-89
2022/07/07 10:48:53;;;;;;;0.20;0.20;;;;;;;;;;5071246;28;20431;-90
2022/07/07 10:51:19;;;;;;;0.40;0.40;;;;;;;;;;5044383;28;20510;-89
2022/07/07 10:53:55;;;;;;;0.50;0.40;;;;;;;;;;5078252;28;20428;-89
2022/07/07 10:56:21;;;;;;;0.00;0.00;;;;;;;;;;5077374;28;20484;-90
2022/07/07 10:58:51;;;;;;;0.20;0.20;;;;;;;;;;5078910;28;20421;-89
2022/07/07 11:01:17;;;;;;;0.50;0.40;;;;;;;;;;5079276;28;20448;-90
2022/07/07 11:03:43;;;;;;;0.93;0.60;;;;;;;;;;5079996;28;20807;-87
2022/07/07 11:06:09;;;;;;;0.10;0.10;;;;;;;;;;5077394;28;20843;-86
2022/07/07 11:08:38;;;;;;;0.10;0.10;;;;;;;;;;5059036;28;20423;-89
2022/07/07 11:11:05;;;;;;;0.10;0.10;;;;;;;;;;5074633;28;20565;-90
2022/07/07 11:13:36;;;;;;;0.10;0.10;;;;;;;;;;5092366;28;20430;-88
2022/07/07 11:16:23;;;;;;;0.10;0.10;;;;;;;;;;5057671;28;20427;-88
2022/07/07 11:18:50;;;;;;;0.20;0.20;;;;;;;;;;5068425;28;20430;-90
2022/07/07 11:21:16;;;;;;;1.30;0.70;;;;;;;;;;5064632;28;20431;-89
2022/07/07 11:23:42;;;;;;;0.63;0.32;;;;;;;;;;5075367;28;20431;-90
2022/07/07 11:26:08;;;;;;;1.20;0.45;;;;;;;;;;5057484;28;20927;-88
2022/07/07 11:28:36;;;;;;;0.00;0.00;;;;;;;;;;5058950;28;20423;-89
2022/07/07 11:31:03;;;;;;;0.10;0.10;;;;;;;;;;5073577;28;20454;-89
2022/07/07 11:33:29;;;;;;;0.40;0.30;;;;;;;;;;5074861;28;20434;-88
2022/07/07 11:35:55;;;;;;;0.00;0.00;;;;;;;;;;5080300;28;20450;-90
2022/07/07 11:38:26;;;;;;;0.10;0.10;;;;;;;;;;5070438;28;20423;-89
2022/07/07 11:40:52;;;;;;;0.22;0.22;;;;;;;;;;5080035;28;20774;-90
2022/07/07 11:43:22;;;;;;;0.20;0.20;;;;;;;;;;5081844;28;20428;-88
2022/07/07 11:45:48;;;;;;;0.40;0.20;;;;;;;;;;5080045;28;20886;-89
2022/07/07 11:48:14;;;;;;;1.80;0.40;;;;;;;;;;5055835;28;20447;-90
2022/07/07 11:50:40;;;;;;;0.13;0.13;;;;;;;;;;5097126;28;20920;-89
2022/07/07 11:53:06;;;;;;;0.10;0.10;;;;;;;;;;5050414;28;20482;-89
2022/07/07 11:55:33;;;;;;;0.10;0.10;;;;;;;;;;5084184;28;20423;-90
2022/07/07 11:58:00;;;;;;;0.20;0.20;;;;;;;;;;5084632;28;20419;-89
2022/07/07 12:00:27;;;;;;;0.10;0.10;;;;;;;;;;5079036;28;20428;-90
2022/07/07 12:03:00;;;;;;;0.10;0.10;;;;;;;;;;5092027;28;20429;-89
2022/07/07 12:05:27;;;;;;;0.40;0.30;;;;;;;;;;5089046;28;20414;-89
2022/07/07 12:07:54;;;;;;;0.10;0.10;;;;;;;;;;5083851;28;20483;-90
2022/07/07 12:10:21;;;;;;;0.10;0.10;;;;;;;;;;5082816;28;20477;-89
2022/07/07 12:12:58;;;;;;;0.80;0.40;;;;;;;;;;5065042;28;20431;-89
2022/07/07 12:15:27;;;;;;;1.80;0.40;;;;;;;;;;5082161;28;20450;-88
2022/07/07 12:17:53;;;;;;;0.10;0.10;;;;;;;;;;5062538;28;20434;-89
2022/07/07 12:20:20;;;;;;;0.10;0.10;;;;;;;;;;5078949;28;20442;-88
2022/07/07 12:22:50;;;;;;;0.10;0.10;;;;;;;;;;5080293;28;20806;-88
2022/07/07 12:25:17;;;;;;;0.30;0.30;;;;;;;;;;5077781;28;20903;-89
2022/07/07 12:28:16;;;;;;;0.10;0.10;;;;;;;;;;5061098;28;20408;-88
2022/07/07 12:30:53;;;;;;;1.20;0.20;;;;;;;;;;5044504;28;20895;-89
2022/07/07 12:33:31;;;;;;;0.10;0.10;;;;;;;;;;5079455;28;20931;-89
2022/07/07 12:36:09;;;;;;;0.20;0.20;;;;;;;;;;5077507;28;20874;-90
2022/07/07 12:38:36;;;;;;;0.10;0.10;;;;;;;;;;5077527;28;20967;-88
2022/07/07 12:41:02;;;;;;;0.70;0.50;;;;;;;;;;5060732;28;20485;-90
2022/07/07 12:43:33;;;;;;;0.32;0.05;;;;;;;;;;5068376;28;20435;-89
2022/07/07 12:46:09;;;;;;;0.10;0.10;;;;;;;;;;5080164;28;20922;-89
2022/07/07 12:48:42;;;;;;;0.10;0.10;;;;;;;;;;5085733;28;20425;-88
2022/07/07 12:51:09;;;;;;;0.10;0.10;;;;;;;;;;5074377;28;20428;-88
2022/07/07 12:53:36;;;;;;;0.10;0.10;;;;;;;;;;5098751;28;20398;-89
2022/07/07 12:56:03;;;;;;;0.17;0.17;;;;;;;;;;5062517;28;20427;-89
2022/07/07 12:58:29;;;;;;;0.10;0.10;;;;;;;;;;5063070;28;20427;-88
2022/07/07 13:01:03;;;;;;;0.10;0.10;;;;;;;;;;5088915;28;20464;-89
2022/07/07 13:03:29;;;;;;;0.10;0.10;;;;;;;;;;5075086;28;20438;-88
2022/07/07 13:05:56;;;;;;;0.13;0.13;;;;;;;;;;5076324;28;20476;-89
2022/07/07 13:08:23;;;;;;;0.10;0.10;;;;;;;;;;5048662;28;20421;-88
2022/07/07 13:10:49;;;;;;;0.30;0.30;;;;;;;;;;5056660;28;20427;-90
2022/07/07 13:13:15;;;;;;;0.20;0.20;;;;;;;;;;5063622;28;20488;-90
2022/07/07 13:15:41;;;;;;;0.10;0.10;;;;;;;;;;5084118;28;20415;-88
2022/07/07 13:18:07;;;;;;;0.20;0.20;;;;;;;;;;5056873;28;20416;-89
2022/07/07 13:20:33;;;;;;;0.20;0.20;;;;;;;;;;5073656;28;20451;-88
2022/07/07 13:22:59;;;;;;;0.30;0.30;;;;;;;;;;5073993;28;20423;-88
2022/07/07 13:25:25;;;;;;;0.20;0.20;;;;;;;;;;5046687;28;20500;-88
2022/07/07 13:27:51;;;;;;;0.10;0.10;;;;;;;;;;5060569;28;20431;-88
2022/07/07 13:30:18;;;;;;;0.10;0.10;;;;;;;;;;5068880;28;20748;-88
2022/07/07 13:32:44;;;;;;;1.10;0.40;;;;;;;;;;5070864;28;20477;-89
2022/07/07 13:35:10;;;;;;;0.00;0.00;;;;;;;;;;5070296;28;20855;-89
2022/07/07 13:37:37;;;;;;;0.60;0.53;;;;;;;;;;5070107;28;20466;-89
2022/07/07 13:40:03;;;;;;;0.10;0.10;;;;;;;;;;5070309;28;20423;-89
2022/07/07 13:42:29;;;;;;;4.80;0.90;;;;;;;;;;5059439;28;20426;-89
2022/07/07 13:44:55;;;;;;;0.70;0.60;;;;;;;;;;5073573;28;20767;-90
2022/07/07 13:47:22;;;;;;;0.20;0.20;;;;;;;;;;5058765;28;20412;-90
2022/07/07 13:49:48;;;;;;;0.10;0.10;;;;;;;;;;5076724;28;20435;-89
2022/07/07 13:52:14;;;;;;;0.10;0.10;;;;;;;;;;5075761;28;21055;-90
2022/07/07 13:54:41;;;;;;;0.10;0.10;;;;;;;;;;5076743;28;20506;-89
2022/07/07 13:57:10;;;;;;;0.10;0.10;;;;;;;;;;5070738;28;20434;-87
2022/07/07 13:59:36;;;;;;;0.10;0.10;;;;;;;;;;5082059;28;20435;-90
2022/07/07 14:02:06;;;;;;;0.03;0.03;;;;;;;;;;5075160;28;20426;-89
2022/07/07 14:04:32;;;;;;;0.20;0.20;;;;;;;;;;5075981;28;20427;-87
2022/07/07 14:06:58;;;;;;;0.10;0.10;;;;;;;;;;5055188;28;20453;-88
2022/07/07 14:09:24;;;;;;;0.10;0.10;;;;;;;;;;5071867;28;20423;-88
2022/07/07 14:11:50;;;;;;;0.05;0.05;;;;;;;;;;5085002;28;20497;-88
2022/07/07 14:14:16;;;;;;;0.13;0.13;;;;;;;;;;5088993;28;20431;-89
2022/07/07 14:16:42;;;;;;;0.00;0.00;;;;;;;;;;5077071;28;20812;-88
2022/07/07 14:19:08;;;;;;;0.10;0.10;;;;;;;;;;5062795;28;20426;-89
2022/07/07 14:21:34;;;;;;;0.00;0.00;;;;;;;;;;5089413;28;20943;-88
2022/07/07 14:24:00;;;;;;;0.30;0.30;;;;;;;;;;5076640;28;20411;-88
2022/07/07 14:26:27;;;;;;;0.10;0.10;;;;;;;;;;5090745;28;20424;-87
2022/07/07 14:28:53;;;;;;;0.00;0.00;;;;;;;;;;5077538;28;20407;-88
2022/07/07 14:31:20;;;;;;;0.10;0.10;;;;;;;;;;5076123;28;20484;-88
2022/07/07 14:33:46;;;;;;;0.10;0.10;;;;;;;;;;5064294;28;20506;-88
2022/07/07 14:36:12;;;;;;;0.10;0.10;;;;;;;;;;5075269;28;20888;-89
2022/07/07 14:38:38;;;;;;;0.10;0.10;;;;;;;;;;5074992;28;20414;-87
2022/07/07 14:41:05;;;;;;;0.10;0.10;;;;;;;;;;5076331;28;20457;-89
2022/07/07 14:43:31;;;;;;;0.70;0.50;;;;;;;;;;5076282;28;20523;-88
2022/07/07 14:45:57;;;;;;;0.40;0.40;;;;;;;;;;5079966;28;20417;-89
2022/07/07 14:48:23;;;;;;;0.28;0.28;;;;;;;;;;5076440;28;20530;-88
2022/07/07 14:50:49;;;;;;;0.10;0.10;;;;;;;;;;5074640;28;20477;-88
2022/07/07 14:53:15;;;;;;;0.10;0.10;;;;;;;;;;5060192;28;20423;-89